Time;durP1;ratioP1;P1;durP2;ratioP2;P2;SDS_P1;SDS_P2;PMS_P1;PMS_P2;Temp;Humidity;BMP_temperature;BMP_pressure;BME280_temperature;BME280_humidity;BME280_pressure;Samples;Min_cycle;Max_cycle;Signal;HPM_P1;HPM_P2
2024/01/29 00:00:03;;;;;;;7.68;4.50;;;;;;;7.44;52.16;102465.81;4965758;28;109187;-69
2024/01/29 00:02:35;;;;;;;9.27;4.07;;;;;;;7.41;52.15;102465.81;4972678;28;124891;-69
2024/01/29 00:05:03;;;;;;;8.98;3.80;;;;;;;7.37;52.59;102458.81;4967242;28;124219;-69
2024/01/29 00:07:30;;;;;;;7.50;4.20;;;;;;;7.33;52.24;102462.34;4979677;28;108474;-69
2024/01/29 00:09:57;;;;;;;7.72;4.28;;;;;;;7.28;52.38;102449.19;4973002;28;108881;-69
2024/01/29 00:12:24;;;;;;;8.48;4.40;;;;;;;7.25;52.59;102443.06;4972758;28;125092;-69
2024/01/29 00:14:52;;;;;;;8.43;4.10;;;;;;;7.19;52.43;102444.84;4962804;28;124100;-69
2024/01/29 00:17:19;;;;;;;11.73;4.50;;;;;;;7.17;52.59;102440.47;4971071;28;109278;-69
2024/01/29 00:19:47;;;;;;;9.90;4.50;;;;;;;7.16;52.79;102444.88;4964905;28;109677;-69
2024/01/29 00:22:14;;;;;;;8.38;4.38;;;;;;;7.15;52.74;102448.38;4966493;28;124123;-69
2024/01/29 00:24:41;;;;;;;8.43;4.28;;;;;;;7.16;52.58;102442.22;4973481;28;124390;-69
2024/01/29 00:27:09;;;;;;;8.35;4.68;;;;;;;7.14;52.70;102446.63;4961252;28;109256;-69
2024/01/29 00:29:36;;;;;;;8.25;4.38;;;;;;;7.13;52.55;102438.72;4967249;28;108965;-69
2024/01/29 00:32:04;;;;;;;6.63;3.88;;;;;;;7.12;52.98;102443.13;4963128;28;122868;-69
2024/01/29 00:34:32;;;;;;;9.10;4.00;;;;;;;7.11;52.64;102441.38;4962480;28;123875;-69
2024/01/29 00:36:59;;;;;;;7.57;4.30;;;;;;;7.09;52.66;102437.88;4971179;28;109781;-69
2024/01/29 00:39:26;;;;;;;8.75;4.28;;;;;;;7.08;52.82;102437.88;4972824;28;110428;-69
2024/01/29 00:41:54;;;;;;;10.20;4.45;;;;;;;7.04;52.75;102439.63;4973660;28;124023;-69
2024/01/29 00:44:21;;;;;;;7.50;3.60;;;;;;;7.00;52.71;102435.28;4959491;28;124329;-69
2024/01/29 00:46:48;;;;;;;7.70;3.88;;;;;;;6.97;52.63;102432.69;4966619;28;109078;-69
2024/01/29 00:49:16;;;;;;;10.18;4.05;;;;;;;6.94;52.77;102443.22;4982395;28;108259;-69
2024/01/29 00:51:44;;;;;;;7.53;4.30;;;;;;;6.91;53.02;102443.22;4966865;28;124066;-69
2024/01/29 00:54:11;;;;;;;8.45;3.90;;;;;;;6.90;53.14;102452.00;4970988;28;124279;-69
2024/01/29 00:56:38;;;;;;;8.95;3.60;;;;;;;6.88;52.96;102459.06;4960320;28;109672;-68
2024/01/29 00:59:06;;;;;;;7.95;4.10;;;;;;;6.86;53.01;102455.53;4959892;28;109491;-69
2024/01/29 01:01:33;;;;;;;8.05;3.55;;;;;;;6.85;53.28;102464.31;4960510;28;124156;-68
2024/01/29 01:04:00;;;;;;;6.57;3.60;;;;;;;6.85;53.29;102453.78;4983521;28;124024;-68
2024/01/29 01:06:28;;;;;;;7.15;4.10;;;;;;;6.83;52.98;102457.28;4975722;28;109439;-69
2024/01/29 01:08:55;;;;;;;7.75;4.20;;;;;;;6.82;52.84;102450.28;4970669;28;109111;-68
2024/01/29 01:11:22;;;;;;;8.82;3.80;;;;;;;6.80;53.03;102446.78;4975590;28;123409;-69
2024/01/29 01:13:51;;;;;;;6.72;3.90;;;;;;;6.77;53.42;102446.78;4969369;28;124504;-69
2024/01/29 01:16:19;;;;;;;7.95;4.10;;;;;;;6.74;53.22;102452.06;4971123;28;109015;-68
2024/01/29 01:18:46;;;;;;;8.60;3.97;;;;;;;6.71;53.09;102452.06;4958664;28;108981;-68
2024/01/29 01:21:15;;;;;;;8.93;4.18;;;;;;;6.69;53.10;102459.09;4964899;28;124084;-68
2024/01/29 01:23:42;;;;;;;8.02;4.00;;;;;;;6.68;53.48;102465.22;4956954;28;124040;-69
2024/01/29 01:26:09;;;;;;;5.35;3.75;;;;;;;6.68;53.24;102467.88;4958407;28;110062;-69
2024/01/29 01:28:37;;;;;;;6.60;4.00;;;;;;;6.67;53.29;102468.75;4962296;28;109939;-69
2024/01/29 01:31:04;;;;;;;6.88;3.75;;;;;;;6.65;53.17;102473.16;4963956;28;123914;-69
2024/01/29 01:33:31;;;;;;;9.10;4.13;;;;;;;6.62;53.36;102467.88;4967318;28;123228;-68
2024/01/29 01:35:59;;;;;;;8.68;4.10;;;;;;;6.58;53.11;102477.53;4970747;28;109279;-68
2024/01/29 01:38:26;;;;;;;8.10;4.10;;;;;;;6.57;53.40;102474.91;4978326;28;108892;-69
2024/01/29 01:40:53;;;;;;;7.55;3.90;;;;;;;6.56;53.24;102475.81;4957113;28;124138;-68
2024/01/29 01:43:23;;;;;;;5.85;3.65;;;;;;;6.54;53.71;102472.31;4972313;28;123790;-69
2024/01/29 01:46:03;;;;;;;8.30;4.13;;;;;;;6.52;53.58;102477.56;4963188;28;108893;-68
2024/01/29 01:48:32;;;;;;;10.63;4.25;;;;;;;6.49;53.67;102471.44;4973441;28;109033;-69
2024/01/29 01:51:01;;;;;;;6.65;3.80;;;;;;;6.49;53.92;102476.69;4965859;28;124617;-69
2024/01/29 01:53:31;;;;;;;9.48;4.13;;;;;;;6.46;53.77;102476.69;4957862;28;123842;-69
2024/01/29 01:56:00;;;;;;;6.43;3.70;;;;;;;6.45;53.69;102474.94;4962396;28;109215;-68
2024/01/29 01:58:27;;;;;;;6.53;3.92;;;;;;;6.42;53.81;102476.72;4960706;28;108164;-69
2024/01/29 02:00:56;;;;;;;8.63;4.15;;;;;;;6.42;53.79;102476.72;4953462;28;124437;-69
2024/01/29 02:03:24;;;;;;;9.00;4.40;;;;;;;6.42;53.82;102471.44;4974648;28;124241;-68
2024/01/29 02:05:52;;;;;;;9.73;3.85;;;;;;;6.41;53.75;102474.94;4971896;28;109297;-69
2024/01/29 02:08:20;;;;;;;7.38;4.00;;;;;;;6.39;53.62;102471.44;4966922;28;108387;-68
2024/01/29 02:10:48;;;;;;;10.10;4.40;;;;;;;6.37;53.79;102467.94;4973137;28;123624;-69
2024/01/29 02:13:15;;;;;;;7.93;4.18;;;;;;;6.36;53.74;102466.16;4968346;28;123845;-69
2024/01/29 02:15:43;;;;;;;8.30;4.40;;;;;;;6.35;53.96;102469.69;4968053;28;111289;-69
2024/01/29 02:18:10;;;;;;;6.93;4.05;;;;;;;6.34;54.10;102473.19;4959913;28;109788;-68
2024/01/29 02:20:37;;;;;;;7.25;4.28;;;;;;;6.33;53.95;102471.47;4973866;28;123592;-68
2024/01/29 02:23:05;;;;;;;10.20;4.43;;;;;;;6.32;54.12;102464.44;4962619;28;124549;-68
2024/01/29 02:25:33;;;;;;;7.53;4.15;;;;;;;6.32;54.33;102469.69;4972071;28;109224;-68
2024/01/29 02:28:01;;;;;;;7.88;4.57;;;;;;;6.33;53.89;102466.19;4971980;28;107991;-68
2024/01/29 02:30:28;;;;;;;8.32;4.55;;;;;;;6.31;54.20;102467.94;4970262;28;124324;-68
2024/01/29 02:32:56;;;;;;;7.35;4.32;;;;;;;6.30;54.19;102471.44;4971220;28;124152;-68
2024/01/29 02:35:23;;;;;;;8.30;4.00;;;;;;;6.31;54.16;102470.59;4968708;28;109543;-68
2024/01/29 02:37:51;;;;;;;8.07;4.25;;;;;;;6.31;54.26;102473.22;4973438;28;108010;-68
2024/01/29 02:40:18;;;;;;;9.00;4.35;;;;;;;6.31;54.13;102480.22;4964232;28;124378;-68
2024/01/29 02:42:45;;;;;;;8.57;3.78;;;;;;;6.31;54.18;102473.22;4965699;28;124293;-68
2024/01/29 02:45:12;;;;;;;7.68;4.25;;;;;;;6.33;54.45;102471.47;4986066;28;109054;-68
2024/01/29 02:47:40;;;;;;;8.45;4.05;;;;;;;6.35;54.20;102468.81;4974148;28;109386;-68
2024/01/29 02:50:08;;;;;;;5.63;3.58;;;;;;;6.37;54.50;102467.94;4969360;28;123846;-68
2024/01/29 02:52:35;;;;;;;7.85;4.18;;;;;;;6.39;54.60;102460.03;4959543;28;124163;-68
2024/01/29 02:55:03;;;;;;;7.13;3.67;;;;;;;6.39;54.75;102466.19;4971981;28;109803;-68
2024/01/29 02:57:31;;;;;;;6.75;4.20;;;;;;;6.42;54.57;102463.56;4959181;28;109414;-68
2024/01/29 02:59:58;;;;;;;7.13;4.03;;;;;;;6.43;54.68;102467.91;4970451;28;123646;-69
2024/01/29 03:02:25;;;;;;;6.97;3.85;;;;;;;6.47;54.73;102467.94;4961703;28;123039;-68
2024/01/29 03:04:54;;;;;;;8.73;3.70;;;;;;;6.48;54.92;102464.41;4993394;28;108972;-68
2024/01/29 03:07:22;;;;;;;9.38;3.83;;;;;;;6.51;54.75;102469.66;4961935;28;109935;-68
2024/01/29 03:09:49;;;;;;;7.10;4.10;;;;;;;6.54;54.67;102464.41;4968356;28;124779;-68
2024/01/29 03:12:16;;;;;;;7.22;3.92;;;;;;;6.56;54.88;102463.50;4971652;28;123847;-68
2024/01/29 03:14:44;;;;;;;8.75;4.10;;;;;;;6.59;54.89;102465.25;4980779;28;108881;-69
2024/01/29 03:17:11;;;;;;;9.80;4.00;;;;;;;6.60;54.58;102461.75;4972182;28;109429;-68
2024/01/29 03:19:39;;;;;;;8.18;3.90;;;;;;;6.62;54.68;102457.34;4972319;28;124854;-68
2024/01/29 03:22:07;;;;;;;7.78;4.00;;;;;;;6.63;54.65;102456.50;4956206;28;124133;-68
2024/01/29 03:24:35;;;;;;;8.88;4.43;;;;;;;6.65;54.56;102460.00;4970669;28;109230;-68
2024/01/29 03:27:03;;;;;;;7.32;4.10;;;;;;;6.67;54.82;102455.59;4969853;28;108488;-68
2024/01/29 03:29:30;;;;;;;8.68;4.20;;;;;;;6.69;54.99;102459.09;4963079;28;123922;-69
2024/01/29 03:31:57;;;;;;;7.00;4.13;;;;;;;6.71;55.14;102457.34;4963471;28;123796;-68
2024/01/29 03:34:25;;;;;;;7.07;3.83;;;;;;;6.73;54.62;102458.22;4966933;28;109111;-68
2024/01/29 03:36:53;;;;;;;7.78;4.20;;;;;;;6.74;54.71;102462.59;4973213;28;108994;-68
2024/01/29 03:39:20;;;;;;;7.80;4.15;;;;;;;6.75;54.83;102459.06;4962025;28;124711;-68
2024/01/29 03:41:47;;;;;;;8.48;3.80;;;;;;;6.77;54.90;102473.09;4968164;28;123904;-68
2024/01/29 03:44:15;;;;;;;8.40;4.50;;;;;;;6.77;54.76;102470.47;4973684;28;109850;-69
2024/01/29 03:46:43;;;;;;;9.13;4.30;;;;;;;6.78;54.63;102473.97;4972974;28;107903;-68
2024/01/29 03:49:10;;;;;;;6.43;4.00;;;;;;;6.78;54.75;102471.34;4974755;28;123056;-68
2024/01/29 03:51:37;;;;;;;6.65;4.05;;;;;;;6.77;54.68;102478.38;4956891;28;124053;-68
2024/01/29 03:54:05;;;;;;;8.77;4.43;;;;;;;6.77;54.66;102473.09;4972309;28;109152;-68
2024/01/29 03:56:32;;;;;;;10.40;4.47;;;;;;;6.76;54.72;102476.63;4975412;28;110147;-68
2024/01/29 03:58:59;;;;;;;7.68;3.88;;;;;;;6.77;54.77;102480.13;4979319;28;123985;-69
2024/01/29 04:01:27;;;;;;;6.97;4.20;;;;;;;6.76;54.67;102487.16;4977041;28;124755;-68
2024/01/29 04:03:55;;;;;;;7.05;4.07;;;;;;;6.75;54.79;102477.50;4975807;28;108946;-69
2024/01/29 04:06:23;;;;;;;6.55;4.15;;;;;;;6.72;54.69;102474.88;4968834;28;109103;-68
2024/01/29 04:08:51;;;;;;;5.55;4.00;;;;;;;6.70;54.67;102468.72;4971290;28;123129;-68
2024/01/29 04:11:18;;;;;;;6.93;4.22;;;;;;;6.67;54.61;102470.50;4970788;28;123982;-68
2024/01/29 04:13:45;;;;;;;7.63;4.05;;;;;;;6.65;54.45;102478.44;4967519;28;109717;-70
2024/01/29 04:16:12;;;;;;;7.22;4.03;;;;;;;6.63;54.52;102472.28;4976325;28;109255;-68
2024/01/29 04:18:45;;;;;;;6.68;4.10;;;;;;;6.62;54.76;102470.53;4953492;28;124301;-68
2024/01/29 04:21:14;;;;;;;8.63;4.25;;;;;;;6.60;54.88;102481.06;4986933;28;125251;-68
2024/01/29 04:23:44;;;;;;;6.68;4.00;;;;;;;6.59;54.54;102473.16;4973263;28;109264;-68
2024/01/29 04:26:11;;;;;;;10.52;4.75;;;;;;;6.58;54.86;102474.03;4981571;22;109145;-78
2024/01/29 04:28:38;;;;;;;8.55;4.40;;;;;;;6.57;54.99;102464.38;5014451;28;124722;-80
2024/01/29 04:31:05;;;;;;;9.02;4.28;;;;;;;6.57;54.92;102475.81;4998098;28;123303;-80
2024/01/29 04:33:38;;;;;;;7.20;4.13;;;;;;;6.58;54.99;102484.56;4981425;28;108252;-80
2024/01/29 04:36:05;;;;;;;6.85;4.05;;;;;;;6.59;55.24;102473.16;4972255;28;110582;-79
2024/01/29 04:38:32;;;;;;;5.63;4.20;;;;;;;6.58;54.87;102481.94;4995568;28;125374;-81
2024/01/29 04:40:59;;;;;;;7.97;4.40;;;;;;;6.60;55.07;102480.19;4986757;28;125159;-81
2024/01/29 04:43:26;;;;;;;7.15;4.28;;;;;;;6.61;55.08;102481.91;4967759;28;109568;-81
2024/01/29 04:45:54;;;;;;;8.73;4.32;;;;;;;6.62;55.03;102483.69;4983429;28;110116;-82
2024/01/29 04:48:21;;;;;;;6.97;3.85;;;;;;;6.63;55.21;102477.56;4976406;28;124167;-82
2024/01/29 04:50:48;;;;;;;7.85;4.57;;;;;;;6.62;54.83;102483.69;4979672;28;123050;-82
2024/01/29 04:53:15;;;;;;;6.38;4.00;;;;;;;6.63;54.96;102486.31;4970346;28;109282;-82
2024/01/29 04:55:43;;;;;;;7.43;4.30;;;;;;;6.65;55.06;102493.31;4959651;28;110487;-81
2024/01/29 04:58:10;;;;;;;7.30;4.25;;;;;;;6.66;55.05;102488.06;4967021;28;125965;-81
2024/01/29 05:00:37;;;;;;;6.47;4.45;;;;;;;6.66;55.09;102490.69;4958106;28;124396;-82
2024/01/29 05:03:05;;;;;;;11.07;4.25;;;;;;;6.67;55.40;102481.94;4957244;28;109974;-81
2024/01/29 05:05:32;;;;;;;9.25;4.70;;;;;;;6.68;55.23;102478.41;4970260;28;108628;-81
2024/01/29 05:07:59;;;;;;;6.80;4.55;;;;;;;6.70;55.30;102481.03;4963935;28;125871;-81
2024/01/29 05:10:26;;;;;;;7.15;4.13;;;;;;;6.69;55.21;102477.53;4950283;28;124536;-81
2024/01/29 05:12:54;;;;;;;8.38;4.15;;;;;;;6.70;55.36;102476.63;4963713;28;108938;-81
2024/01/29 05:15:21;;;;;;;7.82;4.70;;;;;;;6.71;55.31;102483.66;4972637;28;110225;-80
2024/01/29 05:17:48;;;;;;;7.28;4.78;;;;;;;6.73;55.24;102492.44;4966328;28;124047;-81
2024/01/29 05:20:15;;;;;;;8.85;4.72;;;;;;;6.74;55.19;102494.19;4948179;28;125068;-81
2024/01/29 05:22:43;;;;;;;9.20;4.15;;;;;;;6.74;55.00;102478.41;4967379;28;108267;-82
2024/01/29 05:25:10;;;;;;;7.13;4.35;;;;;;;6.75;55.21;102485.41;4966684;28;109799;-82
2024/01/29 05:27:37;;;;;;;7.75;4.63;;;;;;;6.76;55.11;102481.91;4962509;28;124389;-81
2024/01/29 05:30:05;;;;;;;7.15;4.38;;;;;;;6.77;55.00;102483.63;4962218;28;123277;-81
2024/01/29 05:32:33;;;;;;;10.13;4.50;;;;;;;6.78;55.34;102484.50;4971389;28;109478;-81
2024/01/29 05:35:01;;;;;;;12.02;4.63;;;;;;;6.77;55.24;102483.63;4960921;28;109108;-81
2024/01/29 05:37:31;;;;;;;6.00;4.15;;;;;;;6.79;55.26;102488.91;4965330;28;123828;-80
2024/01/29 05:39:58;;;;;;;8.30;4.40;;;;;;;6.79;54.97;102487.16;4957696;28;123259;-81
2024/01/29 05:42:26;;;;;;;11.88;4.50;;;;;;;6.79;55.45;102487.16;4966969;28;110300;-81
2024/01/29 05:44:53;;;;;;;8.30;4.35;;;;;;;6.79;54.92;102487.16;4962643;28;110343;-81
2024/01/29 05:47:21;;;;;;;7.47;5.07;;;;;;;6.77;55.09;102483.63;4965313;28;125207;-81
2024/01/29 05:49:49;;;;;;;8.63;4.68;;;;;;;6.77;54.93;102488.91;4967681;28;125795;-81
2024/01/29 05:52:16;;;;;;;7.75;4.95;;;;;;;6.77;55.09;102483.63;4962753;28;108150;-81
2024/01/29 05:54:43;;;;;;;7.72;4.82;;;;;;;6.76;55.41;102492.44;4973073;28;110191;-82
2024/01/29 05:57:10;;;;;;;9.00;5.10;;;;;;;6.75;55.05;102495.94;4952280;28;124785;-82
2024/01/29 05:59:41;;;;;;;10.65;5.05;;;;;;;6.76;55.23;102496.81;4959149;28;124552;-82
2024/01/29 06:02:08;;;;;;;7.80;5.13;;;;;;;6.76;55.57;102497.72;4968363;28;109977;-81
2024/01/29 06:04:36;;;;;;;8.77;5.10;;;;;;;6.77;55.12;102499.44;4986211;28;107800;-82
2024/01/29 06:07:03;;;;;;;8.70;5.20;;;;;;;6.77;55.16;102499.44;4968598;28;125061;-81
2024/01/29 06:09:30;;;;;;;9.38;5.13;;;;;;;6.79;55.19;102513.47;4952576;28;123319;-81
2024/01/29 06:11:58;;;;;;;9.25;5.00;;;;;;;6.80;55.36;102515.25;4963071;28;109992;-81
2024/01/29 06:14:26;;;;;;;9.75;5.28;;;;;;;6.81;55.27;102516.97;4963401;28;108260;-81
2024/01/29 06:16:57;;;;;;;10.80;5.65;;;;;;;6.82;55.55;102502.94;4945451;28;124657;-82
2024/01/29 06:19:25;;;;;;;10.55;4.95;;;;;;;6.83;55.35;102504.69;4969356;28;122356;-81
2024/01/29 06:21:52;;;;;;;8.02;4.80;;;;;;;6.83;55.35;102494.16;4966660;28;109348;-81
2024/01/29 06:24:20;;;;;;;9.55;5.43;;;;;;;6.85;55.42;102501.19;4967079;28;111099;-82
2024/01/29 06:26:47;;;;;;;12.60;5.53;;;;;;;6.83;55.39;102499.41;4958870;28;123910;-81
2024/01/29 06:29:15;;;;;;;10.85;5.50;;;;;;;6.83;55.42;102507.31;4970648;28;124007;-82
2024/01/29 06:31:42;;;;;;;10.50;5.40;;;;;;;6.83;55.36;102499.41;4964374;28;108102;-81
2024/01/29 06:34:10;;;;;;;8.23;4.88;;;;;;;6.83;55.43;102499.41;4962588;28;110198;-80
2024/01/29 06:36:37;;;;;;;12.40;5.40;;;;;;;6.85;55.33;102495.91;4968186;28;123912;-81
2024/01/29 06:39:07;;;;;;;8.43;5.30;;;;;;;6.85;55.61;102495.91;4957205;28;124006;-82
2024/01/29 06:41:34;;;;;;;8.73;5.05;;;;;;;6.86;55.56;102508.22;4970509;28;110242;-82
2024/01/29 06:44:01;;;;;;;9.55;5.43;;;;;;;6.88;55.30;102501.19;4970759;28;109913;-81
2024/01/29 06:46:29;;;;;;;11.25;5.63;;;;;;;6.88;55.47;102498.56;4955718;28;123550;-81
2024/01/29 06:48:56;;;;;;;11.02;5.05;;;;;;;6.88;55.64;102501.19;4972717;28;124258;-82
2024/01/29 06:51:23;;;;;;;7.95;3.30;;;;;;;6.89;55.00;102502.91;4972646;28;109037;-82
2024/01/29 06:53:51;;;;;;;8.52;3.40;;;;;;;6.90;55.35;102499.41;4965405;28;110144;-82
2024/01/29 06:56:18;;;;;;;7.28;3.85;;;;;;;6.90;55.36;102495.03;4968463;28;124388;-82
2024/01/29 06:58:45;;;;;;;5.93;3.47;;;;;;;6.91;55.21;102501.16;4965365;28;124999;-81
2024/01/29 07:01:18;;;;;;;10.10;4.20;;;;;;;6.91;55.51;102511.69;4977215;28;109164;-81
2024/01/29 07:03:45;;;;;;;6.60;3.72;;;;;;;6.91;55.50;102517.84;4970847;28;109502;-81
2024/01/29 07:06:13;;;;;;;8.57;4.22;;;;;;;6.93;55.40;102520.47;4957778;28;124987;-81
2024/01/29 07:08:40;;;;;;;6.80;3.90;;;;;;;6.93;55.55;102525.72;4985405;28;123405;-82
2024/01/29 07:11:07;;;;;;;9.82;4.38;;;;;;;6.94;55.36;102527.50;4972167;28;109406;-81
2024/01/29 07:13:34;;;;;;;9.43;4.25;;;;;;;6.93;55.65;102541.53;4967658;28;110788;-82
2024/01/29 07:16:02;;;;;;;6.75;3.90;;;;;;;6.94;55.54;102527.50;4954637;28;124933;-81
2024/01/29 07:18:29;;;;;;;8.75;4.10;;;;;;;6.95;55.32;102539.78;4965563;28;124822;-80
2024/01/29 07:20:56;;;;;;;7.40;3.70;;;;;;;6.95;55.11;102540.66;4951732;28;109868;-81
2024/01/29 07:23:24;;;;;;;7.53;4.15;;;;;;;6.96;55.31;102546.81;4972123;28;108978;-81
2024/01/29 07:25:51;;;;;;;7.10;3.70;;;;;;;6.96;55.30;102552.06;4951224;28;125074;-81
2024/01/29 07:28:18;;;;;;;6.72;3.90;;;;;;;6.98;55.43;102550.31;4938546;28;124819;-81
2024/01/29 07:30:45;;;;;;;6.38;3.78;;;;;;;6.98;55.38;102561.72;4956305;28;108089;-81
2024/01/29 07:33:13;;;;;;;5.78;3.53;;;;;;;6.99;55.20;102552.06;4957104;28;108169;-81
2024/01/29 07:35:40;;;;;;;10.18;3.78;;;;;;;7.00;55.43;102561.72;4973190;28;123029;-82
2024/01/29 07:38:07;;;;;;;7.82;3.88;;;;;;;7.01;55.38;102566.13;4964825;28;124177;-82
2024/01/29 07:40:35;;;;;;;6.47;3.58;;;;;;;7.02;55.55;102563.47;4988365;28;110492;-81
2024/01/29 07:43:02;;;;;;;6.95;3.53;;;;;;;7.05;55.31;102567.88;4995525;28;109806;-81
2024/01/29 07:45:30;;;;;;;8.27;3.60;;;;;;;7.07;55.31;102575.78;4987795;28;123584;-82
2024/01/29 07:47:59;;;;;;;6.65;3.95;;;;;;;7.07;55.35;102571.38;4985869;28;123635;-82
2024/01/29 07:50:26;;;;;;;6.97;4.03;;;;;;;7.08;55.33;102567.84;4968778;28;110891;-83
2024/01/29 07:52:54;;;;;;;6.53;3.72;;;;;;;7.08;55.30;102573.09;4969083;28;108529;-82
2024/01/29 07:55:22;;;;;;;7.15;3.88;;;;;;;7.10;55.62;102570.47;4967887;28;125500;-83
2024/01/29 07:57:49;;;;;;;9.02;3.70;;;;;;;7.12;55.59;102569.59;4960330;28;123999;-83
2024/01/29 08:00:18;;;;;;;6.28;3.78;;;;;;;7.15;55.31;102568.72;4966942;28;110526;-83
2024/01/29 08:02:45;;;;;;;5.40;3.42;;;;;;;7.17;55.57;102567.81;4942149;28;110181;-83
2024/01/29 08:05:13;;;;;;;7.05;3.95;;;;;;;7.21;55.82;102574.84;4964396;28;124927;-82
2024/01/29 08:07:40;;;;;;;7.05;3.70;;;;;;;7.26;55.87;102571.31;4949458;28;124972;-82
2024/01/29 08:10:08;;;;;;;5.55;3.70;;;;;;;7.31;55.54;102573.06;4967297;28;109181;-82
2024/01/29 08:12:35;;;;;;;6.40;3.00;;;;;;;7.36;55.75;102575.66;4970564;28;110210;-83
2024/01/29 08:15:05;;;;;;;6.32;3.20;;;;;;;7.38;55.71;102576.53;4966302;28;123031;-83
2024/01/29 08:17:32;;;;;;;7.28;3.63;;;;;;;7.43;55.71;102572.13;4966013;28;124865;-82
2024/01/29 08:20:00;;;;;;;7.43;3.25;;;;;;;7.49;55.73;102569.44;4953784;28;109490;-82
2024/01/29 08:22:27;;;;;;;7.88;3.42;;;;;;;7.53;55.63;102565.03;4967116;28;108586;-83
2024/01/29 08:24:55;;;;;;;6.20;3.08;;;;;;;7.58;55.79;102564.13;4945037;28;123034;-83
2024/01/29 08:27:22;;;;;;;5.30;3.30;;;;;;;7.63;55.85;102572.03;4969861;28;123555;-83
2024/01/29 08:29:49;;;;;;;6.63;2.83;;;;;;;7.69;55.83;102568.50;4966737;28;109757;-83
2024/01/29 08:32:19;;;;;;;5.93;3.28;;;;;;;7.74;55.94;102574.59;4968502;28;108925;-83
2024/01/29 08:34:46;;;;;;;6.10;3.35;;;;;;;7.82;55.99;102580.72;4952403;28;125764;-83
2024/01/29 08:37:13;;;;;;;4.63;2.90;;;;;;;7.88;55.64;102587.75;4973948;28;125390;-83
2024/01/29 08:39:40;;;;;;;6.72;2.75;;;;;;;7.94;55.93;102588.56;4962417;28;109869;-83
2024/01/29 08:42:08;;;;;;;5.38;3.20;;;;;;;8.01;56.03;102593.81;4954885;28;108103;-83
2024/01/29 08:44:37;;;;;;;5.00;3.08;;;;;;;8.07;55.98;102589.38;4952120;28;125029;-83
2024/01/29 08:47:04;;;;;;;6.10;2.95;;;;;;;8.14;56.10;102606.06;4967436;28;124817;-83
2024/01/29 08:49:31;;;;;;;6.10;3.15;;;;;;;8.21;56.05;102602.47;4964222;28;111072;-83
2024/01/29 08:51:58;;;;;;;5.85;3.22;;;;;;;8.28;55.74;102604.19;4972305;28;109472;-83
2024/01/29 08:54:26;;;;;;;6.88;3.53;;;;;;;8.35;55.88;102595.34;4971845;28;125744;-83
2024/01/29 08:56:53;;;;;;;6.40;3.60;;;;;;;8.41;55.86;102594.41;4987890;28;124735;-83
2024/01/29 08:59:21;;;;;;;9.10;3.47;;;;;;;8.49;55.91;102591.75;4968678;28;110114;-83
2024/01/29 09:01:48;;;;;;;8.35;3.55;;;;;;;8.56;56.00;102593.44;4965889;28;109305;-83
2024/01/29 09:04:15;;;;;;;6.32;3.22;;;;;;;8.65;56.03;102588.09;4971931;28;124461;-83
2024/01/29 09:06:43;;;;;;;6.65;3.50;;;;;;;8.72;56.14;102581.88;4978244;28;125000;-82
2024/01/29 09:09:10;;;;;;;7.45;4.07;;;;;;;8.82;56.21;102584.44;4993419;28;108411;-81
2024/01/29 09:11:38;;;;;;;7.13;3.85;;;;;;;8.91;56.19;102581.66;4990103;28;108629;-81
2024/01/29 09:14:05;;;;;;;9.23;3.90;;;;;;;9.00;56.05;102584.22;4980447;28;123730;-81
2024/01/29 09:16:32;;;;;;;7.43;3.75;;;;;;;9.11;56.13;102582.31;4977428;28;125556;-81
2024/01/29 09:19:00;;;;;;;7.55;3.80;;;;;;;9.20;56.13;102585.78;4986115;28;108228;-81
2024/01/29 09:21:31;;;;;;;6.40;3.50;;;;;;;9.30;56.36;102576.84;4980970;28;108343;-80
2024/01/29 09:23:58;;;;;;;7.40;3.72;;;;;;;9.39;55.95;102576.72;4996836;28;124191;-81
2024/01/29 09:26:25;;;;;;;6.30;3.80;;;;;;;9.49;55.96;102573.09;4979555;28;122984;-82
2024/01/29 09:28:53;;;;;;;7.80;3.70;;;;;;;9.58;56.06;102576.50;4975918;28;108629;-83
2024/01/29 09:31:20;;;;;;;6.93;3.90;;;;;;;9.67;56.05;102576.38;4957360;28;109849;-83
2024/01/29 09:33:48;;;;;;;6.72;3.72;;;;;;;9.77;56.00;102578.00;4971192;28;123197;-83
2024/01/29 09:36:15;;;;;;;7.63;3.85;;;;;;;9.86;55.79;102572.59;4973157;28;125884;-83
2024/01/29 09:38:42;;;;;;;7.75;3.85;;;;;;;9.93;56.10;102579.53;4971075;28;111164;-82
2024/01/29 09:41:09;;;;;;;6.53;3.97;;;;;;;10.01;55.85;102581.22;4978269;28;109348;-82
2024/01/29 09:43:39;;;;;;;6.60;3.38;;;;;;;10.07;55.88;102581.13;4982732;28;124439;-83
2024/01/29 09:46:07;;;;;;;8.93;3.78;;;;;;;10.13;55.93;102578.38;4975930;28;123981;-83
2024/01/29 09:48:37;;;;;;;5.60;3.55;;;;;;;10.21;55.61;102584.44;4962308;28;108689;-82
2024/01/29 09:51:06;;;;;;;8.50;3.60;;;;;;;10.27;55.61;102584.34;4989579;28;108585;-82
2024/01/29 09:53:35;;;;;;;8.35;4.00;;;;;;;10.32;55.54;102582.53;4972988;28;125184;-82
2024/01/29 09:56:03;;;;;;;7.43;3.90;;;;;;;10.39;55.67;102582.41;4975441;28;122500;-82
2024/01/29 09:58:31;;;;;;;6.95;3.90;;;;;;;10.45;55.50;102587.59;4976965;28;108346;-83
2024/01/29 10:01:03;;;;;;;6.55;3.60;;;;;;;10.49;55.73;102594.59;4960635;28;109915;-83
2024/01/29 10:03:32;;;;;;;7.53;4.22;;;;;;;10.55;55.52;102599.81;4980105;28;123767;-83
2024/01/29 10:06:00;;;;;;;8.90;4.15;;;;;;;10.61;55.52;102594.41;4979615;28;122040;-82
2024/01/29 10:08:29;;;;;;;7.00;3.75;;;;;;;10.67;55.58;102598.72;4977195;28;108229;-83
2024/01/29 10:10:57;;;;;;;7.55;4.28;;;;;;;10.73;55.54;102593.31;4961494;28;107767;-83
2024/01/29 10:13:24;;;;;;;6.70;4.38;;;;;;;10.82;55.60;102593.16;4974965;28;126544;-84
2024/01/29 10:15:52;;;;;;;7.63;3.75;;;;;;;10.90;55.48;102595.66;4974215;28;125462;-84
2024/01/29 10:18:20;;;;;;;7.13;4.30;;;;;;;10.96;55.42;102606.16;4978627;28;107588;-84
2024/01/29 10:21:03;;;;;;;7.18;3.97;;;;;;;11.03;55.48;102607.78;4973132;28;109400;-84
2024/01/29 10:23:31;;;;;;;6.07;3.80;;;;;;;11.10;55.39;102604.13;4976090;28;124138;-84
2024/01/29 10:26:00;;;;;;;6.45;3.92;;;;;;;11.17;55.29;102604.00;4982422;28;123779;-84
2024/01/29 10:28:27;;;;;;;7.28;4.22;;;;;;;11.23;55.25;102598.59;4970114;28;111386;-84
2024/01/29 10:30:55;;;;;;;8.65;4.15;;;;;;;11.30;55.36;102606.41;4970633;28;109455;-84
2024/01/29 10:33:25;;;;;;;8.05;4.40;;;;;;;11.36;55.40;102605.41;4956760;28;124808;-84
2024/01/29 10:35:57;;;;;;;8.30;4.55;;;;;;;11.43;55.14;102612.34;4969943;28;124232;-84
2024/01/29 10:38:28;;;;;;;7.63;4.50;;;;;;;11.50;55.27;102613.94;4972698;28;110784;-84
2024/01/29 10:40:58;;;;;;;7.55;4.28;;;;;;;11.58;55.16;102615.56;4972701;28;108854;-84
2024/01/29 10:43:35;;;;;;;6.10;4.10;;;;;;;11.65;55.18;102622.50;4971331;28;126282;-84
2024/01/29 10:46:07;;;;;;;7.57;4.18;;;;;;;11.71;55.08;102617.06;4969145;28;123744;-85
2024/01/29 10:48:35;;;;;;;6.82;4.13;;;;;;;11.79;55.23;102615.13;4976531;28;110196;-84
2024/01/29 10:51:03;;;;;;;9.05;4.63;;;;;;;11.87;54.97;102618.47;4958152;28;109874;-84
2024/01/29 10:53:31;;;;;;;7.85;4.40;;;;;;;11.95;54.96;102614.81;4966437;28;125210;-84
2024/01/29 10:55:59;;;;;;;7.68;4.30;;;;;;;12.04;55.20;102614.63;4978122;28;123933;-84
2024/01/29 10:58:27;;;;;;;10.30;4.57;;;;;;;12.14;54.96;102617.94;4971350;28;108811;-84
2024/01/29 11:00:56;;;;;;;7.25;4.15;;;;;;;12.21;55.00;102617.75;4972044;28;110046;-84
2024/01/29 11:03:26;;;;;;;7.95;4.88;;;;;;;12.30;54.90;102615.78;4976621;28;122782;-85
2024/01/29 11:05:58;;;;;;;7.57;4.60;;;;;;;12.37;54.96;102622.69;4971620;28;124587;-84
2024/01/29 11:08:31;;;;;;;8.13;4.53;;;;;;;12.44;55.00;102616.34;4966202;28;110143;-85
2024/01/29 11:11:00;;;;;;;7.45;4.68;;;;;;;12.51;54.88;102620.59;4970577;28;110009;-85
2024/01/29 11:13:33;;;;;;;7.40;4.32;;;;;;;12.59;54.78;102618.59;4967848;28;124476;-84
2024/01/29 11:16:01;;;;;;;6.97;4.43;;;;;;;12.65;54.83;102618.44;4951291;28;124656;-85
2024/01/29 11:18:33;;;;;;;8.38;4.90;;;;;;;12.73;54.68;102625.34;4961871;28;109785;-85
2024/01/29 11:21:02;;;;;;;11.23;4.72;;;;;;;12.78;54.59;102618.16;4949139;28;110718;-85
2024/01/29 11:23:29;;;;;;;5.90;4.00;;;;;;;12.87;54.65;102617.03;4970675;28;123666;-85
2024/01/29 11:26:04;;;;;;;7.63;3.85;;;;;;;12.91;54.64;102608.94;4983111;28;123998;-85